createdAt,value
2022-09-07T00:02:10.873Z,9.23
2022-09-07T00:04:40.301Z,12.52
2022-09-07T00:07:08.829Z,7.57
2022-09-07T00:09:40.317Z,7.07
2022-09-07T00:12:08.127Z,9.00
2022-09-07T00:14:41.368Z,8.27
2022-09-07T00:17:10.049Z,12.02
2022-09-07T00:19:37.894Z,12.73
2022-09-07T00:22:05.665Z,10.10
2022-09-07T00:24:33.675Z,10.00
2022-09-07T00:27:07.637Z,10.65
2022-09-07T00:29:43.911Z,11.05
2022-09-07T00:32:25.795Z,12.85
2022-09-07T00:34:57.844Z,9.95
2022-09-07T00:37:38.204Z,8.80
2022-09-07T00:40:06.362Z,11.23
2022-09-07T00:42:37.045Z,12.40
2022-09-07T00:45:15.425Z,9.18
2022-09-07T00:47:52.411Z,6.95
2022-09-07T00:50:22.989Z,6.43
2022-09-07T00:52:59.353Z,7.40
2022-09-07T00:55:36.905Z,7.60
2022-09-07T00:58:24.863Z,6.35
2022-09-07T01:00:57.161Z,7.07
2022-09-07T01:03:29.784Z,5.03
2022-09-07T01:06:00.653Z,4.13
2022-09-07T01:08:29.295Z,4.78
2022-09-07T01:11:01.848Z,4.22
2022-09-07T01:13:39.276Z,4.43
2022-09-07T01:16:25.072Z,4.88
2022-09-07T01:19:14.338Z,6.22
2022-09-07T01:22:01.223Z,6.20
2022-09-07T01:24:35.033Z,4.53
2022-09-07T01:27:29.660Z,7.82
2022-09-07T01:30:16.775Z,3.50
2022-09-07T01:33:09.216Z,4.30
2022-09-07T01:35:39.131Z,4.22
2022-09-07T01:38:13.590Z,3.70
2022-09-07T01:40:52.196Z,4.63
2022-09-07T01:43:47.492Z,5.03
2022-09-07T01:46:31.274Z,3.25
2022-09-07T01:49:15.916Z,3.47
2022-09-07T01:51:45.787Z,5.13
2022-09-07T01:54:31.863Z,4.93
2022-09-07T01:57:02.990Z,4.38
2022-09-07T01:59:39.840Z,3.58
2022-09-07T02:02:23.396Z,3.83
2022-09-07T02:05:06.208Z,4.55
2022-09-07T02:07:45.946Z,4.20
2022-09-07T02:10:30.970Z,3.22
2022-09-07T02:13:06.512Z,3.58
2022-09-07T02:16:10.118Z,4.40
2022-09-07T02:18:46.159Z,3.85
2022-09-07T02:21:19.436Z,3.35
2022-09-07T02:23:57.674Z,3.13
2022-09-07T02:26:26.407Z,4.78
2022-09-07T02:28:54.094Z,4.30
2022-09-07T02:31:27.872Z,3.55
2022-09-07T02:33:58.143Z,3.05
2022-09-07T02:36:27.463Z,3.95
2022-09-07T02:38:57.210Z,4.38
2022-09-07T02:41:31.780Z,2.35
2022-09-07T02:43:59.969Z,5.78
2022-09-07T02:46:46.341Z,3.25
2022-09-07T02:49:32.459Z,3.67
2022-09-07T02:52:14.494Z,3.90
2022-09-07T02:55:09.507Z,3.03
2022-09-07T02:57:47.252Z,4.88
2022-09-07T03:00:26.107Z,3.97
2022-09-07T03:03:02.984Z,5.18
2022-09-07T03:05:30.419Z,4.82
2022-09-07T03:08:04.425Z,2.78
2022-09-07T03:10:37.960Z,4.72
2022-09-07T03:13:05.663Z,4.35
2022-09-07T03:15:36.092Z,4.35
2022-09-07T03:18:06.550Z,4.60
2022-09-07T03:20:34.099Z,3.40
2022-09-07T03:23:03.865Z,4.88
2022-09-07T03:25:34.186Z,5.85
2022-09-07T03:28:06.447Z,4.57
2022-09-07T03:33:07.395Z,5.28
2022-09-07T03:35:37.391Z,3.90
2022-09-07T03:38:04.918Z,5.75
2022-09-07T03:40:34.814Z,5.80
2022-09-07T03:43:02.589Z,4.85
2022-09-07T03:48:07.274Z,4.15
2022-09-07T03:50:34.725Z,4.70
2022-09-07T03:53:02.339Z,4.45
2022-09-07T03:55:29.973Z,4.70
2022-09-07T03:57:57.919Z,4.03
2022-09-07T04:00:29.875Z,4.88
2022-09-07T04:02:57.625Z,5.95
2022-09-07T04:05:28.263Z,6.57
2022-09-07T04:07:58.800Z,4.50
2022-09-07T04:10:31.979Z,5.35
2022-09-07T04:13:02.848Z,5.93
2022-09-07T04:15:38.852Z,5.93
2022-09-07T04:18:09.614Z,5.90
2022-09-07T04:20:38.580Z,4.63
2022-09-07T04:24:12.353Z,4.95
2022-09-07T04:54:48.819Z,5.28
2022-09-07T04:57:24.457Z,5.90
2022-09-07T04:59:52.968Z,5.43
2022-09-07T05:02:21.901Z,6.63
2022-09-07T05:04:58.363Z,6.15
2022-09-07T05:07:30.855Z,6.22
2022-09-07T05:10:03.616Z,6.03
2022-09-07T05:12:32.122Z,7.18
2022-09-07T05:14:59.953Z,5.28
2022-09-07T05:17:40.658Z,4.60
2022-09-07T05:20:08.939Z,6.18
2022-09-07T05:22:41.267Z,5.38
2022-09-07T05:25:12.714Z,5.72
2022-09-07T05:27:42.460Z,4.95
2022-09-07T05:33:10.235Z,6.78
2022-09-07T05:35:42.358Z,7.63
2022-09-07T05:38:10.292Z,8.02
2022-09-07T05:40:44.556Z,8.07
2022-09-07T05:43:15.330Z,7.68
2022-09-07T05:45:43.919Z,7.68
2022-09-07T05:48:21.862Z,9.07
2022-09-07T05:51:00.210Z,6.85
2022-09-07T05:53:28.426Z,7.75
2022-09-07T05:56:06.921Z,9.15
2022-09-07T05:58:43.347Z,7.70
2022-09-07T06:01:17.123Z,10.13
2022-09-07T06:03:45.331Z,7.70
2022-09-07T06:06:21.333Z,8.93
2022-09-07T06:08:53.054Z,9.48
2022-09-07T06:11:31.430Z,9.77
2022-09-07T06:14:04.833Z,7.00
2022-09-07T06:16:36.790Z,8.02
2022-09-07T06:19:17.022Z,8.40
2022-09-07T06:21:50.795Z,8.43
2022-09-07T06:27:30.328Z,9.02
2022-09-07T06:30:01.436Z,8.80
2022-09-07T06:35:17.136Z,11.18
2022-09-07T06:37:52.268Z,10.25
2022-09-07T06:40:20.029Z,10.68
2022-09-07T06:42:50.006Z,10.05
2022-09-07T06:45:26.707Z,10.20
2022-09-07T07:03:22.441Z,12.15
2022-09-07T07:05:59.806Z,13.27
2022-09-07T07:08:45.417Z,9.82
2022-09-07T07:11:21.930Z,14.50
2022-09-07T07:13:58.084Z,17.45
2022-09-07T07:16:31.911Z,13.68
2022-09-07T07:19:01.261Z,14.77
2022-09-07T07:24:12.307Z,17.48
2022-09-07T07:26:48.911Z,15.65
2022-09-07T07:29:18.758Z,13.90
2022-09-07T07:31:58.986Z,17.35
2022-09-07T07:34:45.582Z,14.98
2022-09-07T07:37:42.545Z,17.52
2022-09-07T07:40:15.437Z,15.25
2022-09-07T07:43:34.536Z,15.55
2022-09-07T07:46:06.046Z,18.50
2022-09-07T07:48:46.863Z,16.98
2022-09-07T07:51:27.617Z,17.25
2022-09-07T07:54:00.284Z,15.77
2022-09-07T07:59:20.419Z,14.20
2022-09-07T08:03:00.958Z,18.05
2022-09-07T08:05:30.264Z,18.45
2022-09-07T08:11:22.629Z,19.85
2022-09-07T08:14:08.212Z,17.88
2022-09-07T08:16:50.241Z,18.55
2022-09-07T08:19:42.178Z,15.05
2022-09-07T08:22:24.752Z,16.10
2022-09-07T08:37:45.148Z,12.57
2022-09-07T08:40:31.977Z,13.05
2022-09-07T08:43:02.412Z,13.52
2022-09-07T08:45:48.011Z,12.43
2022-09-07T08:48:29.774Z,14.43
2022-09-07T08:51:26.590Z,13.65
2022-09-07T08:56:33.616Z,13.45
2022-09-07T08:59:32.029Z,11.73
2022-09-07T09:02:30.062Z,12.63
2022-09-07T09:05:20.366Z,13.52
2022-09-07T09:08:07.590Z,10.70
2022-09-07T09:10:48.908Z,12.57
2022-09-07T09:13:24.664Z,10.57
2022-09-07T09:15:58.922Z,11.13
2022-09-07T09:21:48.602Z,11.10
2022-09-07T09:27:00.546Z,13.23
2022-09-07T09:29:31.760Z,11.82
2022-09-07T09:32:23.466Z,12.20
2022-09-07T09:35:34.490Z,11.20
2022-09-07T09:38:06.416Z,8.13
2022-09-07T09:40:45.035Z,9.27
2022-09-07T09:44:05.938Z,10.13
2022-09-07T09:46:48.120Z,7.03
2022-09-07T09:49:45.603Z,10.18
2022-09-07T09:52:29.976Z,9.45
2022-09-07T09:55:23.563Z,9.07
2022-09-07T10:01:29.325Z,6.32
2022-09-07T10:16:51.756Z,6.70
2022-09-07T10:19:42.096Z,6.18
2022-09-07T10:22:33.337Z,9.27
2022-09-07T10:25:01.363Z,5.90
2022-09-07T10:27:42.439Z,4.63
2022-09-07T10:30:18.784Z,7.18
2022-09-07T10:32:58.161Z,6.32
2022-09-07T10:35:31.253Z,8.52
2022-09-07T10:38:20.853Z,5.88
2022-09-07T10:40:54.068Z,5.25
2022-09-07T10:43:34.861Z,4.78
2022-09-07T10:49:33.409Z,8.57
2022-09-07T10:52:13.648Z,10.13
2022-09-07T10:54:47.306Z,6.68
2022-09-07T10:57:34.553Z,5.63
2022-09-07T11:00:08.120Z,6.47
2022-09-07T11:06:06.551Z,7.30
2022-09-07T11:12:04.357Z,6.95
2022-09-07T11:14:40.052Z,5.10
2022-09-07T11:17:18.659Z,5.68
2022-09-07T11:20:03.331Z,8.00
2022-09-07T11:22:47.343Z,6.15
2022-09-07T11:25:34.174Z,8.27
2022-09-07T11:28:26.701Z,4.32
2022-09-07T11:31:03.092Z,7.40
2022-09-07T11:33:42.148Z,7.00
2022-09-07T11:36:13.459Z,7.03
2022-09-07T11:38:58.490Z,6.95
2022-09-07T11:41:52.485Z,6.90
2022-09-07T11:44:35.999Z,7.53
2022-09-07T11:47:11.813Z,4.85
2022-09-07T11:49:41.772Z,6.88
2022-09-07T11:52:32.651Z,7.78
2022-09-07T11:55:32.774Z,5.03
2022-09-07T11:58:25.808Z,7.65
2022-09-07T12:01:09.204Z,6.78
2022-09-07T12:03:44.968Z,5.85
2022-09-07T12:06:24.953Z,6.63
2022-09-07T12:09:21.460Z,5.93
2022-09-07T12:11:55.391Z,5.47
2022-09-07T12:14:35.387Z,4.72
2022-09-07T12:17:10.817Z,8.00
2022-09-07T12:19:41.194Z,5.35
2022-09-07T12:22:24.993Z,15.48
2022-09-07T12:25:12.150Z,5.07
2022-09-07T12:27:47.447Z,4.78
2022-09-07T12:30:22.963Z,7.10
2022-09-07T12:33:31.044Z,6.07
2022-09-07T12:39:21.509Z,5.97
2022-09-07T12:44:53.135Z,8.15
2022-09-07T12:47:30.082Z,5.10
2022-09-07T12:50:23.926Z,5.95
2022-09-07T12:53:19.706Z,5.35
2022-09-07T12:56:17.544Z,5.82
2022-09-07T12:59:04.227Z,6.18
2022-09-07T13:01:33.814Z,5.28
2022-09-07T13:04:18.683Z,3.47
2022-09-07T13:07:02.004Z,7.47
2022-09-07T13:09:46.761Z,4.90
2022-09-07T13:15:40.979Z,6.38
2022-09-07T13:18:33.868Z,4.70
2022-09-07T13:21:12.101Z,4.10
2022-09-07T13:27:26.307Z,7.05
2022-09-07T13:30:17.990Z,4.22
2022-09-07T13:33:08.338Z,6.43
2022-09-07T13:38:24.069Z,6.80
2022-09-07T13:40:55.187Z,6.63
2022-09-07T13:43:26.777Z,5.53
2022-09-07T13:45:55.067Z,3.88
2022-09-07T13:48:25.457Z,4.07
2022-09-07T13:51:15.979Z,4.40
2022-09-07T13:54:07.982Z,5.80
2022-09-07T13:57:10.998Z,6.15
2022-09-07T13:59:46.019Z,5.30
2022-09-07T14:02:42.326Z,5.38
2022-09-07T14:05:16.611Z,4.75
2022-09-07T14:07:57.168Z,5.28
2022-09-07T14:10:39.356Z,22.45
2022-09-07T14:13:16.237Z,10.20
2022-09-07T14:15:48.857Z,4.78
2022-09-07T14:18:25.711Z,6.22
2022-09-07T14:21:03.156Z,3.83
2022-09-07T14:23:57.284Z,6.88
2022-09-07T14:26:30.213Z,8.25
2022-09-07T14:29:01.653Z,6.35
2022-09-07T14:31:32.423Z,9.68
2022-09-07T14:34:02.558Z,4.15
2022-09-07T14:36:44.830Z,3.97
2022-09-07T14:39:16.329Z,8.38
2022-09-07T14:41:46.642Z,8.20
2022-09-07T14:47:30.284Z,6.38
2022-09-07T14:50:01.970Z,8.95
2022-09-07T14:53:33.160Z,5.32
2022-09-07T14:55:37.252Z,5.70
2022-09-07T14:58:33.484Z,4.18
2022-09-07T15:04:06.133Z,5.95
2022-09-07T15:07:05.057Z,5.85
2022-09-07T15:09:39.833Z,5.05
2022-09-07T15:12:10.559Z,4.18
2022-09-07T15:14:43.189Z,5.00
2022-09-07T15:17:49.604Z,4.28
2022-09-07T15:20:44.929Z,5.07
2022-09-07T15:23:17.394Z,4.05
2022-09-07T15:26:08.668Z,4.78
2022-09-07T15:31:41.671Z,5.00
2022-09-07T15:34:25.575Z,7.30
2022-09-07T15:38:01.135Z,4.32
2022-09-07T15:39:57.414Z,5.70
2022-09-07T15:45:25.053Z,7.00
2022-09-07T15:48:05.195Z,6.53
2022-09-07T15:50:33.152Z,5.00
2022-09-07T15:54:35.274Z,7.15
2022-09-07T15:59:58.689Z,9.23
2022-09-07T16:08:25.462Z,5.57
2022-09-07T16:11:05.455Z,4.78
2022-09-07T16:13:42.803Z,8.38
2022-09-07T16:16:16.017Z,4.70
2022-09-07T16:18:50.522Z,6.50
2022-09-07T16:21:27.007Z,6.22
2022-09-07T16:23:55.175Z,4.43
2022-09-07T16:26:26.789Z,7.50
2022-09-07T16:28:59.004Z,6.63
2022-09-07T16:31:37.917Z,5.43
2022-09-07T16:36:52.605Z,6.38
2022-09-07T16:39:42.970Z,5.15
2022-09-07T16:42:23.072Z,6.60
2022-09-07T16:44:53.894Z,6.60
2022-09-07T16:47:39.891Z,6.15
2022-09-07T16:50:19.809Z,6.90
2022-09-07T16:53:03.008Z,8.15
2022-09-07T16:55:43.386Z,9.20
2022-09-07T17:01:14.086Z,7.70
2022-09-07T17:03:52.038Z,6.43
2022-09-07T17:06:30.015Z,9.57
2022-09-07T17:09:05.199Z,6.65
2022-09-07T17:12:15.225Z,5.18
2022-09-07T17:14:49.395Z,7.40
2022-09-07T17:17:20.386Z,7.72
2022-09-07T17:19:55.337Z,6.25
2022-09-07T17:22:29.534Z,5.25
2022-09-07T17:24:58.881Z,7.68
2022-09-07T17:27:29.520Z,6.22
2022-09-07T17:30:02.866Z,8.00
2022-09-07T17:32:32.893Z,6.20
2022-09-07T17:35:07.522Z,6.25
2022-09-07T17:37:38.107Z,7.38
2022-09-07T17:40:09.356Z,7.25
2022-09-07T17:45:28.499Z,8.15
2022-09-07T17:47:56.328Z,8.20
2022-09-07T17:50:27.239Z,8.77
2022-09-07T17:53:39.465Z,8.50
2022-09-07T17:56:10.695Z,7.05
2022-09-07T17:58:39.065Z,9.05
2022-09-07T18:01:10.489Z,5.03
2022-09-07T18:03:41.217Z,6.55
2022-09-07T18:06:10.463Z,5.95
2022-09-07T18:08:48.416Z,6.68
2022-09-07T18:14:11.261Z,9.60
2022-09-07T18:16:46.002Z,7.47
2022-09-07T18:19:13.630Z,4.90
2022-09-07T18:21:42.265Z,9.35
2022-09-07T18:24:19.993Z,9.00
2022-09-07T18:26:52.399Z,8.07
2022-09-07T18:29:33.881Z,7.82
2022-09-07T18:32:08.882Z,6.45
2022-09-07T18:34:48.268Z,5.57
2022-09-07T18:37:28.327Z,8.85
2022-09-07T18:40:08.339Z,7.32
2022-09-07T18:42:40.836Z,7.22
2022-09-07T18:45:34.436Z,6.65
2022-09-07T18:48:06.682Z,6.82
2022-09-07T18:50:37.582Z,9.02
2022-09-07T18:53:16.649Z,8.02
2022-09-07T18:55:58.822Z,7.63
2022-09-07T18:58:35.565Z,10.50
2022-09-07T19:01:12.451Z,8.10
2022-09-07T19:04:20.399Z,8.90
2022-09-07T19:06:49.309Z,8.10
2022-09-07T19:09:24.706Z,8.70
2022-09-07T19:12:04.476Z,11.05
2022-09-07T19:14:50.425Z,7.70
2022-09-07T19:17:31.076Z,7.60
2022-09-07T19:20:19.100Z,12.57
2022-09-07T19:23:09.790Z,7.03
2022-09-07T19:25:48.810Z,9.50
2022-09-07T19:28:23.613Z,12.30
2022-09-07T19:30:53.607Z,10.27
2022-09-07T19:33:22.909Z,9.88
2022-09-07T19:38:34.311Z,11.27
2022-09-07T19:41:29.269Z,8.77
2022-09-07T19:44:07.940Z,9.07
2022-09-07T19:46:52.188Z,8.93
2022-09-07T19:52:19.358Z,8.60
2022-09-07T19:57:31.594Z,9.48
2022-09-07T20:00:17.801Z,8.77
2022-09-07T20:02:58.121Z,9.80
2022-09-07T20:05:34.322Z,8.05
2022-09-07T20:08:07.769Z,8.43
2022-09-07T20:31:53.276Z,11.45
2022-09-07T20:34:46.990Z,9.70
2022-09-07T20:37:19.566Z,10.85
2022-09-07T20:40:07.173Z,8.55
2022-09-07T20:43:02.093Z,11.20
2022-09-07T20:46:03.860Z,8.88
2022-09-07T20:48:52.035Z,12.73
2022-09-07T20:51:52.952Z,11.50
2022-09-07T20:54:26.231Z,7.65
2022-09-07T20:57:07.554Z,7.97
2022-09-07T20:59:54.533Z,11.20
2022-09-07T21:02:29.373Z,10.68
2022-09-07T21:05:03.360Z,10.98
2022-09-07T21:07:52.424Z,9.95
2022-09-07T21:10:27.787Z,10.73
2022-09-07T21:13:18.488Z,11.23
2022-09-07T21:15:51.768Z,10.02
2022-09-07T21:18:29.684Z,10.25
2022-09-07T21:21:21.566Z,8.52
2022-09-07T21:24:04.565Z,11.75
2022-09-07T21:26:36.908Z,12.65
2022-09-07T21:29:17.672Z,11.52
2022-09-07T21:31:50.034Z,11.73
2022-09-07T21:37:15.363Z,11.70
2022-09-07T21:42:52.893Z,9.63
2022-09-07T21:45:35.650Z,13.10
2022-09-07T21:48:11.872Z,10.75
2022-09-07T21:50:50.487Z,11.65
2022-09-07T21:53:27.248Z,10.00
2022-09-07T21:56:12.683Z,14.88
2022-09-07T22:01:58.098Z,12.65
2022-09-07T22:04:31.808Z,11.00
2022-09-07T22:07:04.444Z,9.63
2022-09-07T22:09:47.669Z,9.85
2022-09-07T22:12:18.483Z,11.57
2022-09-07T22:14:46.752Z,12.48
2022-09-07T22:17:17.976Z,12.15
2022-09-07T22:19:58.697Z,14.25
2022-09-07T22:22:28.275Z,11.95
2022-09-07T22:25:01.783Z,12.27
2022-09-07T22:27:44.471Z,13.45
2022-09-07T22:30:17.869Z,12.90
2022-09-07T22:32:49.612Z,15.63
2022-09-07T22:35:20.920Z,14.75
2022-09-07T22:37:48.589Z,14.87
2022-09-07T22:40:25.773Z,15.45
2022-09-07T22:45:45.515Z,12.10
2022-09-07T22:48:13.478Z,13.23
2022-09-07T22:50:59.730Z,16.88
2022-09-07T22:53:50.215Z,15.68
2022-09-07T22:56:33.295Z,12.77
2022-09-07T22:59:06.642Z,16.77
2022-09-07T23:01:38.372Z,14.60
2022-09-07T23:04:21.349Z,18.65
2022-09-07T23:07:13.509Z,15.40
2022-09-07T23:09:51.043Z,15.20
2022-09-07T23:12:37.369Z,9.50
2022-09-07T23:15:15.812Z,12.10
2022-09-07T23:17:45.776Z,11.40
2022-09-07T23:20:38.262Z,10.40
2022-09-07T23:23:19.994Z,11.73
2022-09-07T23:25:58.013Z,13.10
2022-09-07T23:28:30.120Z,13.25
2022-09-07T23:31:14.350Z,12.90
2022-09-07T23:34:14.793Z,11.55
2022-09-07T23:37:07.314Z,11.98
2022-09-07T23:39:48.150Z,13.65
2022-09-07T23:46:19.125Z,14.45
2022-09-07T23:48:58.807Z,11.60
2022-09-07T23:52:08.506Z,17.13
